Time;durP1;ratioP1;P1;durP2;ratioP2;P2;SDS_P1;SDS_P2;PMS_P1;PMS_P2;Temp;Humidity;BMP_temperature;BMP_pressure;BME280_temperature;BME280_humidity;BME280_pressure;Samples;Min_cycle;Max_cycle;Signal;HPM_P1;HPM_P2
2022/03/15 00:00:02;;;;;;;;;;;18.60;56.80;;;;;;5032970;28;1207;-69
2022/03/15 00:02:28;;;;;;;;;;;18.60;56.80;;;;;;5034323;28;1021;-69
2022/03/15 00:04:55;;;;;;;;;;;18.60;56.90;;;;;;5034386;28;917;-70
2022/03/15 00:07:21;;;;;;;;;;;18.60;56.90;;;;;;5034282;28;1947;-69
2022/03/15 00:09:46;;;;;;;;;;;18.60;56.90;;;;;;5034145;28;878;-69
2022/03/15 00:12:14;;;;;;;;;;;18.60;56.90;;;;;;5034020;28;1172;-69
2022/03/15 00:14:41;;;;;;;;;;;18.50;56.90;;;;;;5041406;28;1187;-69
2022/03/15 00:17:06;;;;;;;;;;;18.50;56.90;;;;;;5033999;28;1193;-69
2022/03/15 00:19:32;;;;;;;;;;;18.50;56.90;;;;;;5049240;28;1144;-69
2022/03/15 00:21:57;;;;;;;;;;;18.50;57.00;;;;;;5033843;28;1283;-69
2022/03/15 00:24:23;;;;;;;;;;;18.50;57.00;;;;;;5032483;28;931;-69
2022/03/15 00:26:48;;;;;;;;;;;18.50;57.00;;;;;;5032692;28;950;-69
2022/03/15 00:29:17;;;;;;;;;;;18.50;57.00;;;;;;5033641;28;1910;-69
2022/03/15 00:31:44;;;;;;;;;;;18.50;57.00;;;;;;5032873;28;1274;-69
2022/03/15 00:34:09;;;;;;;;;;;18.50;57.10;;;;;;5033764;28;870;-69
2022/03/15 00:36:37;;;;;;;;;;;18.50;57.10;;;;;;5039253;28;1116;-69
2022/03/15 00:39:03;;;;;;;;;;;18.50;57.10;;;;;;5033233;28;882;-69
2022/03/15 00:41:29;;;;;;;;;;;18.50;57.10;;;;;;5032349;28;1216;-69
2022/03/15 00:43:54;;;;;;;;;;;18.50;57.10;;;;;;5032330;28;1050;-69
2022/03/15 00:46:20;;;;;;;;;;;18.50;57.10;;;;;;5033560;28;1022;-69
2022/03/15 00:48:45;;;;;;;;;;;18.50;57.10;;;;;;5048325;28;1992;-69
2022/03/15 00:51:10;;;;;;;;;;;18.50;57.20;;;;;;5033399;28;1205;-69
2022/03/15 00:53:36;;;;;;;;;;;18.50;57.20;;;;;;5033175;28;810;-69
2022/03/15 00:56:01;;;;;;;;;;;18.50;57.20;;;;;;5033414;28;843;-69
2022/03/15 00:58:27;;;;;;;;;;;18.50;57.20;;;;;;5033007;28;1061;-69
2022/03/15 01:00:52;;;;;;;;;;;18.50;57.20;;;;;;5032778;28;1197;-69
2022/03/15 01:03:18;;;;;;;;;;;18.40;57.20;;;;;;5033225;28;705;-69
2022/03/15 01:05:43;;;;;;;;;;;18.50;57.20;;;;;;5033775;28;782;-69
2022/03/15 01:08:09;;;;;;;;;;;18.50;57.20;;;;;;5032190;28;1945;-69
2022/03/15 01:10:34;;;;;;;;;;;18.50;57.30;;;;;;5033320;28;1208;-69
2022/03/15 01:13:00;;;;;;;;;;;18.40;57.20;;;;;;5033570;28;832;-70
2022/03/15 01:15:25;;;;;;;;;;;18.40;57.20;;;;;;5033465;28;1547;-69
2022/03/15 01:17:51;;;;;;;;;;;18.40;57.20;;;;;;5033346;28;799;-70
2022/03/15 01:20:16;;;;;;;;;;;18.40;57.30;;;;;;5031861;28;1286;-69
2022/03/15 01:22:42;;;;;;;;;;;18.40;57.30;;;;;;5033298;28;1057;-69
2022/03/15 01:25:08;;;;;;;;;;;18.40;57.30;;;;;;5033488;28;788;-69
2022/03/15 01:27:34;;;;;;;;;;;18.40;57.30;;;;;;5033630;28;1910;-69
2022/03/15 01:30:00;;;;;;;;;;;18.40;57.30;;;;;;5033051;28;1257;-69
2022/03/15 01:32:25;;;;;;;;;;;18.40;57.30;;;;;;5031923;28;1072;-69
2022/03/15 01:34:51;;;;;;;;;;;18.40;57.40;;;;;;5032018;28;1065;-69
2022/03/15 01:37:16;;;;;;;;;;;18.40;57.40;;;;;;5033057;28;1471;-69
2022/03/15 01:39:42;;;;;;;;;;;18.40;57.40;;;;;;5032686;28;1200;-69
2022/03/15 01:42:07;;;;;;;;;;;18.40;57.40;;;;;;5031865;28;1398;-69
2022/03/15 01:44:33;;;;;;;;;;;18.30;57.30;;;;;;5032917;28;836;-69
2022/03/15 01:46:59;;;;;;;;;;;18.30;57.30;;;;;;5030836;28;867;-69
2022/03/15 01:49:24;;;;;;;;;;;18.40;57.40;;;;;;5031449;28;1957;-69
2022/03/15 01:51:50;;;;;;;;;;;18.40;57.40;;;;;;5032826;28;1283;-69
2022/03/15 01:54:15;;;;;;;;;;;18.40;57.50;;;;;;5031638;28;879;-69
2022/03/15 01:56:42;;;;;;;;;;;18.30;57.40;;;;;;5031781;28;1014;-69
2022/03/15 01:59:10;;;;;;;;;;;18.30;57.40;;;;;;5031588;28;883;-69
2022/03/15 02:01:42;;;;;;;;;;;18.30;57.40;;;;;;5032808;28;1310;-69
2022/03/15 02:04:07;;;;;;;;;;;18.30;57.40;;;;;;5032879;28;823;-69
2022/03/15 02:06:36;;;;;;;;;;;18.30;57.40;;;;;;5031561;28;1037;-69
2022/03/15 02:09:08;;;;;;;;;;;18.30;57.40;;;;;;5032385;28;1894;-69
2022/03/15 02:11:35;;;;;;;;;;;18.40;57.50;;;;;;5031593;28;1206;-70
2022/03/15 02:14:01;;;;;;;;;;;18.30;57.50;;;;;;5037927;28;1132;-70
2022/03/15 02:16:26;;;;;;;;;;;18.30;57.50;;;;;;5036797;28;1191;-69
2022/03/15 02:18:52;;;;;;;;;;;18.30;57.50;;;;;;5036356;28;895;-69
2022/03/15 02:21:17;;;;;;;;;;;18.30;57.50;;;;;;5035261;28;1609;-69
2022/03/15 02:23:43;;;;;;;;;;;18.30;57.60;;;;;;5035416;28;819;-70
2022/03/15 02:26:08;;;;;;;;;;;18.30;57.60;;;;;;5035435;28;698;-69
2022/03/15 02:28:34;;;;;;;;;;;18.30;57.50;;;;;;5036171;28;1902;-69
2022/03/15 02:30:59;;;;;;;;;;;18.30;57.60;;;;;;5036432;28;1142;-69
2022/03/15 02:33:24;;;;;;;;;;;18.30;57.60;;;;;;5036282;28;883;-69
2022/03/15 02:35:50;;;;;;;;;;;18.30;57.60;;;;;;5036322;28;1210;-69
2022/03/15 02:38:15;;;;;;;;;;;18.30;57.60;;;;;;5036331;28;954;-69
2022/03/15 02:40:41;;;;;;;;;;;18.30;57.60;;;;;;5051564;28;1222;-69
2022/03/15 02:43:06;;;;;;;;;;;18.30;57.60;;;;;;5036406;28;820;-71
2022/03/15 02:45:32;;;;;;;;;;;18.30;57.60;;;;;;5036387;28;934;-70
2022/03/15 02:47:57;;;;;;;;;;;18.30;57.60;;;;;;5036178;28;1955;-70
2022/03/15 02:50:23;;;;;;;;;;;18.30;58.20;;;;;;5035636;28;1286;-71
2022/03/15 02:52:48;;;;;;;;;;;18.30;57.60;;;;;;5035979;28;815;-70
2022/03/15 02:55:16;;;;;;;;;;;18.30;57.70;;;;;;5034832;28;895;-70
2022/03/15 02:57:44;;;;;;;;;;;18.20;57.60;;;;;;5035906;28;832;-71
2022/03/15 03:00:10;;;;;;;;;;;18.20;57.60;;;;;;5035754;28;1296;-71
2022/03/15 03:02:35;;;;;;;;;;;18.30;57.70;;;;;;5034750;28;784;-68
2022/03/15 03:05:01;;;;;;;;;;;18.30;57.70;;;;;;5034827;28;811;-68
2022/03/15 03:07:26;;;;;;;;;;;18.30;57.70;;;;;;5035831;28;1960;-68
2022/03/15 03:09:52;;;;;;;;;;;18.30;57.70;;;;;;5036003;28;877;-69
2022/03/15 03:12:18;;;;;;;;;;;18.30;57.70;;;;;;5035676;28;1302;-69
2022/03/15 03:14:46;;;;;;;;;;;18.20;57.70;;;;;;5035688;28;1127;-68
2022/03/15 03:17:12;;;;;;;;;;;18.20;57.70;;;;;;5035567;28;1150;-69
2022/03/15 03:19:38;;;;;;;;;;;18.20;57.70;;;;;;5035291;28;874;-68
2022/03/15 03:22:04;;;;;;;;;;;18.20;57.70;;;;;;5034340;28;1264;-68
2022/03/15 03:24:30;;;;;;;;;;;18.20;57.70;;;;;;5033295;28;882;-68
2022/03/15 03:26:56;;;;;;;;;;;18.20;57.70;;;;;;5035732;28;962;-68
2022/03/15 03:29:21;;;;;;;;;;;18.20;57.70;;;;;;5035169;28;1930;-68
2022/03/15 03:31:47;;;;;;;;;;;18.20;57.70;;;;;;5035369;28;1296;-68
2022/03/15 03:34:12;;;;;;;;;;;18.20;57.70;;;;;;5035324;28;1022;-68
2022/03/15 03:36:37;;;;;;;;;;;18.20;57.70;;;;;;5034486;28;1194;-68
2022/03/15 03:39:03;;;;;;;;;;;18.20;57.80;;;;;;5034904;28;808;-67
2022/03/15 03:41:29;;;;;;;;;;;18.20;57.80;;;;;;5034033;28;1223;-68
2022/03/15 03:43:54;;;;;;;;;;;18.20;57.80;;;;;;5033990;28;933;-68
2022/03/15 03:46:20;;;;;;;;;;;18.20;57.80;;;;;;5035032;28;1095;-69
2022/03/15 03:48:45;;;;;;;;;;;18.20;57.80;;;;;;5034666;28;1910;-68
2022/03/15 03:51:11;;;;;;;;;;;18.20;57.80;;;;;;5035723;28;1295;-68
2022/03/15 03:53:37;;;;;;;;;;;18.20;57.80;;;;;;5033851;28;827;-68
2022/03/15 03:56:03;;;;;;;;;;;18.20;57.80;;;;;;5033816;28;886;-68
2022/03/15 03:58:28;;;;;;;;;;;18.20;57.90;;;;;;5034752;28;1025;-68
2022/03/15 04:00:53;;;;;;;;;;;18.20;57.90;;;;;;5034719;28;1203;-68
2022/03/15 04:03:19;;;;;;;;;;;18.20;57.90;;;;;;5034646;28;710;-68
2022/03/15 04:05:45;;;;;;;;;;;18.20;57.90;;;;;;5035405;28;742;-68
2022/03/15 04:08:12;;;;;;;;;;;18.20;57.80;;;;;;5034703;28;1903;-68
2022/03/15 04:10:37;;;;;;;;;;;18.20;57.90;;;;;;5034611;28;1212;-68
2022/03/15 04:13:04;;;;;;;;;;;18.20;57.90;;;;;;5033694;28;950;-68
2022/03/15 04:15:31;;;;;;;;;;;18.20;57.90;;;;;;5048588;28;1179;-69
2022/03/15 04:17:56;;;;;;;;;;;18.10;57.90;;;;;;5034411;28;980;-68
2022/03/15 04:20:22;;;;;;;;;;;18.20;57.90;;;;;;5033997;28;1237;-69
2022/03/15 04:22:47;;;;;;;;;;;18.20;57.90;;;;;;5033500;28;860;-69
2022/03/15 04:25:14;;;;;;;;;;;18.20;57.90;;;;;;5034455;28;823;-69
2022/03/15 04:27:39;;;;;;;;;;;18.20;57.90;;;;;;5033042;28;1906;-69
2022/03/15 04:30:05;;;;;;;;;;;18.20;57.90;;;;;;5034175;28;1217;-69
2022/03/15 04:32:31;;;;;;;;;;;18.10;57.90;;;;;;5033311;28;882;-69
2022/03/15 04:34:56;;;;;;;;;;;18.20;57.90;;;;;;5049661;28;943;-69
2022/03/15 04:37:23;;;;;;;;;;;18.20;57.90;;;;;;5034135;28;1559;-70
2022/03/15 04:39:49;;;;;;;;;;;18.20;57.90;;;;;;5033984;28;776;-69
2022/03/15 04:42:14;;;;;;;;;;;18.20;58.00;;;;;;5034456;28;1178;-69
2022/03/15 04:44:40;;;;;;;;;;;18.20;58.00;;;;;;5033948;28;926;-69
2022/03/15 04:47:05;;;;;;;;;;;18.10;57.90;;;;;;5032719;28;911;-69
2022/03/15 04:49:31;;;;;;;;;;;18.10;57.90;;;;;;5033490;28;1957;-69
2022/03/15 04:51:57;;;;;;;;;;;18.10;57.90;;;;;;5033742;28;1193;-68
2022/03/15 04:54:22;;;;;;;;;;;18.10;57.90;;;;;;5016224;28;1172;-68
2022/03/15 04:56:48;;;;;;;;;;;18.10;57.90;;;;;;5034277;28;906;-69
2022/03/15 04:59:13;;;;;;;;;;;18.10;57.90;;;;;;5032270;28;769;-69
2022/03/15 05:01:38;;;;;;;;;;;18.10;57.90;;;;;;5034208;28;1347;-69
2022/03/15 05:04:04;;;;;;;;;;;18.10;58.00;;;;;;5033862;28;856;-69
2022/03/15 05:06:29;;;;;;;;;;;18.10;58.00;;;;;;5032433;28;873;-69
2022/03/15 05:08:55;;;;;;;;;;;18.10;58.00;;;;;;5032100;28;1898;-69
2022/03/15 05:11:21;;;;;;;;;;;18.10;58.00;;;;;;5033468;28;1188;-68
2022/03/15 05:13:47;;;;;;;;;;;18.10;58.00;;;;;;5033505;28;1103;-69
2022/03/15 05:16:18;;;;;;;;;;;18.10;58.00;;;;;;5028802;28;1125;-68
2022/03/15 05:18:44;;;;;;;;;;;18.10;58.00;;;;;;5012309;28;824;-68
2022/03/15 05:21:14;;;;;;;;;;;18.10;58.00;;;;;;5039087;22;2762;-71
2022/03/15 05:23:40;;;;;;;;;;;18.10;58.00;;;;;;5032609;28;858;-71
2022/03/15 05:26:05;;;;;;;;;;;18.10;58.00;;;;;;5033454;28;962;-71
2022/03/15 05:28:31;;;;;;;;;;;18.10;58.00;;;;;;5032968;28;1914;-70
2022/03/15 05:30:56;;;;;;;;;;;18.10;58.00;;;;;;5033234;28;1227;-71
2022/03/15 05:33:22;;;;;;;;;;;18.10;58.10;;;;;;5031768;28;808;-71
2022/03/15 05:35:48;;;;;;;;;;;18.10;58.00;;;;;;5033269;28;1205;-71
2022/03/15 05:38:13;;;;;;;;;;;18.10;58.00;;;;;;5033176;28;815;-71
2022/03/15 05:40:39;;;;;;;;;;;18.10;58.00;;;;;;5032928;28;1192;-70
2022/03/15 05:43:04;;;;;;;;;;;18.10;58.10;;;;;;5031796;28;1013;-71
2022/03/15 05:45:29;;;;;;;;;;;18.10;58.00;;;;;;5033327;28;1017;-71
2022/03/15 05:47:55;;;;;;;;;;;18.10;58.10;;;;;;5031430;28;1890;-71
2022/03/15 05:50:21;;;;;;;;;;;18.10;58.10;;;;;;5048079;28;1276;-71
2022/03/15 05:52:46;;;;;;;;;;;18.10;58.10;;;;;;5031787;28;902;-71
2022/03/15 05:55:12;;;;;;;;;;;18.10;58.10;;;;;;5033109;28;899;-71
2022/03/15 05:57:37;;;;;;;;;;;18.10;58.10;;;;;;5032939;28;851;-72
2022/03/15 06:00:04;;;;;;;;;;;18.10;58.10;;;;;;5031559;28;930;-71
2022/03/15 06:02:29;;;;;;;;;;;18.10;58.10;;;;;;5032940;28;1186;-70
2022/03/15 06:04:55;;;;;;;;;;;18.10;58.10;;;;;;5031754;28;918;-69
2022/03/15 06:07:20;;;;;;;;;;;18.00;58.00;;;;;;5032959;28;918;-69
2022/03/15 06:09:46;;;;;;;;;;;18.10;58.00;;;;;;5031485;28;1890;-69
2022/03/15 06:12:11;;;;;;;;;;;18.10;58.00;;;;;;5032871;28;1177;-69
2022/03/15 06:14:36;;;;;;;;;;;18.20;58.00;;;;;;5032700;28;1385;-71
2022/03/15 06:17:02;;;;;;;;;;;18.30;57.90;;;;;;5048124;28;1410;-71
2022/03/15 06:19:27;;;;;;;;;;;18.40;57.80;;;;;;5031263;28;990;-69
2022/03/15 06:21:53;;;;;;;;;;;18.50;57.70;;;;;;5032746;28;1585;-70
2022/03/15 06:24:18;;;;;;;;;;;18.60;57.40;;;;;;5032698;28;1006;-71
2022/03/15 06:26:45;;;;;;;;;;;18.70;57.10;;;;;;5048141;28;1463;-71
2022/03/15 06:29:10;;;;;;;;;;;18.90;56.80;;;;;;5032294;28;1954;-71
2022/03/15 06:31:37;;;;;;;;;;;19.10;56.50;;;;;;5032944;28;1332;-71
2022/03/15 06:34:04;;;;;;;;;;;19.20;56.20;;;;;;5032611;28;926;-69
2022/03/15 06:36:30;;;;;;;;;;;19.30;55.80;;;;;;5031469;28;1424;-70
2022/03/15 06:38:55;;;;;;;;;;;19.50;55.60;;;;;;5031193;28;1030;-70
2022/03/15 06:41:20;;;;;;;;;;;19.60;55.30;;;;;;5031228;28;1225;-70
2022/03/15 06:43:46;;;;;;;;;;;19.70;55.00;;;;;;5031174;28;939;-69
2022/03/15 06:46:11;;;;;;;;;;;19.80;54.80;;;;;;5032682;28;867;-70
2022/03/15 06:48:37;;;;;;;;;;;19.90;54.60;;;;;;5032200;28;1958;-70
2022/03/15 06:51:05;;;;;;;;;;;20.00;54.30;;;;;;5031775;28;2241;-70
2022/03/15 06:53:31;;;;;;;;;;;20.10;54.10;;;;;;5037367;28;1940;-70
2022/03/15 06:55:56;;;;;;;;;;;20.20;54.00;;;;;;5031279;28;1619;-69
2022/03/15 06:58:22;;;;;;;;;;;20.20;53.70;;;;;;5031618;28;1970;-70
2022/03/15 07:00:50;;;;;;;;;;;20.30;53.60;;;;;;5033511;28;1487;-70
2022/03/15 07:03:15;;;;;;;;;;;20.40;53.50;;;;;;5035978;28;1615;-70
2022/03/15 07:05:41;;;;;;;;;;;20.40;53.40;;;;;;5029463;28;1422;-69
2022/03/15 07:08:06;;;;;;;;;;;20.40;53.20;;;;;;5034772;28;2253;-70
2022/03/15 07:10:32;;;;;;;;;;;20.40;53.20;;;;;;5034966;28;1558;-70
2022/03/15 07:12:58;;;;;;;;;;;20.40;53.20;;;;;;5035786;28;844;-70
2022/03/15 07:15:23;;;;;;;;;;;20.50;53.20;;;;;;5035767;28;1539;-71
2022/03/15 07:17:50;;;;;;;;;;;20.50;53.20;;;;;;5035562;28;930;-71
2022/03/15 07:20:16;;;;;;;;;;;20.50;53.30;;;;;;5034283;28;823;-70
2022/03/15 07:22:41;;;;;;;;;;;20.50;53.30;;;;;;5035435;28;1276;-70
2022/03/15 07:25:07;;;;;;;;;;;20.50;53.30;;;;;;5035686;28;781;-72
2022/03/15 07:27:32;;;;;;;;;;;20.50;53.30;;;;;;5035551;28;1906;-73
2022/03/15 07:29:58;;;;;;;;;;;20.50;53.40;;;;;;5034002;28;1042;-71
2022/03/15 07:32:23;;;;;;;;;;;20.50;53.40;;;;;;5035346;28;1193;-72
2022/03/15 07:34:49;;;;;;;;;;;20.40;53.30;;;;;;5035213;28;961;-73
2022/03/15 07:37:15;;;;;;;;;;;20.40;53.30;;;;;;5035268;28;1598;-73
2022/03/15 07:39:40;;;;;;;;;;;20.40;53.30;;;;;;5033685;28;1248;-72
2022/03/15 07:42:05;;;;;;;;;;;20.40;53.90;;;;;;5034139;28;1190;-71
2022/03/15 07:44:31;;;;;;;;;;;20.40;53.30;;;;;;5035166;28;1013;-70
2022/03/15 07:46:56;;;;;;;;;;;20.40;53.30;;;;;;5033947;28;828;-70
2022/03/15 07:49:22;;;;;;;;;;;20.30;53.30;;;;;;5033755;28;1957;-70
2022/03/15 07:51:47;;;;;;;;;;;20.30;53.40;;;;;;5034836;28;1197;-71
2022/03/15 07:54:13;;;;;;;;;;;20.30;53.40;;;;;;5035130;28;835;-69
2022/03/15 07:56:39;;;;;;;;;;;20.30;53.50;;;;;;5033907;28;823;-68
2022/03/15 07:59:04;;;;;;;;;;;20.30;53.60;;;;;;5034685;28;820;-71
2022/03/15 08:01:30;;;;;;;;;;;20.20;53.60;;;;;;5050186;28;1299;-73
2022/03/15 08:03:55;;;;;;;;;;;20.20;53.60;;;;;;5033653;28;832;-70
2022/03/15 08:06:21;;;;;;;;;;;20.20;53.70;;;;;;5034907;28;811;-69
2022/03/15 08:08:46;;;;;;;;;;;20.20;53.70;;;;;;5034522;28;1897;-71
2022/03/15 08:11:12;;;;;;;;;;;20.20;54.40;;;;;;5034078;28;1292;-71
2022/03/15 08:13:37;;;;;;;;;;;20.20;53.80;;;;;;5034945;28;1477;-70
2022/03/15 08:16:03;;;;;;;;;;;20.20;53.90;;;;;;5033382;28;1435;-70
2022/03/15 08:18:28;;;;;;;;;;;20.20;54.00;;;;;;5033729;28;1096;-71
2022/03/15 08:20:55;;;;;;;;;;;20.10;54.00;;;;;;5034759;28;1335;-71
2022/03/15 08:23:21;;;;;;;;;;;20.10;54.00;;;;;;5034536;28;925;-73
2022/03/15 08:25:47;;;;;;;;;;;20.10;54.10;;;;;;5033242;28;879;-71
2022/03/15 08:28:12;;;;;;;;;;;20.10;54.10;;;;;;5033145;28;1902;-70
2022/03/15 08:30:38;;;;;;;;;;;20.10;54.10;;;;;;5034066;28;1272;-72
2022/03/15 08:33:03;;;;;;;;;;;20.10;54.20;;;;;;5034456;28;1018;-72
2022/03/15 08:35:29;;;;;;;;;;;20.10;54.20;;;;;;5033157;28;1495;-71
2022/03/15 08:37:54;;;;;;;;;;;20.00;54.20;;;;;;5034346;28;941;-72
2022/03/15 08:40:20;;;;;;;;;;;20.00;54.20;;;;;;5033818;28;1216;-72
2022/03/15 08:42:45;;;;;;;;;;;20.00;54.20;;;;;;5033081;28;835;-71
2022/03/15 08:45:11;;;;;;;;;;;20.00;54.20;;;;;;5034141;28;800;-72
2022/03/15 08:47:37;;;;;;;;;;;20.00;54.30;;;;;;5032895;28;1890;-70
2022/03/15 08:50:03;;;;;;;;;;;20.00;54.30;;;;;;5033754;28;864;-70
2022/03/15 08:52:29;;;;;;;;;;;20.00;54.40;;;;;;5034043;28;1316;-70
2022/03/15 08:54:54;;;;;;;;;;;19.90;54.40;;;;;;5032777;28;947;-70
2022/03/15 08:57:20;;;;;;;;;;;19.90;55.00;;;;;;5034016;28;1323;-70
2022/03/15 08:59:46;;;;;;;;;;;19.90;54.40;;;;;;5033504;28;820;-70
2022/03/15 09:02:12;;;;;;;;;;;19.90;54.50;;;;;;5033868;28;1294;-71
2022/03/15 09:04:37;;;;;;;;;;;19.90;54.50;;;;;;5033832;28;909;-70
2022/03/15 09:07:03;;;;;;;;;;;19.90;54.50;;;;;;5033806;28;1036;-71
2022/03/15 09:09:28;;;;;;;;;;;19.90;54.60;;;;;;5033503;28;1937;-71
2022/03/15 09:11:54;;;;;;;;;;;19.90;54.60;;;;;;5048994;28;1221;-71
2022/03/15 09:14:19;;;;;;;;;;;19.80;54.60;;;;;;5033474;28;1411;-71
2022/03/15 09:16:45;;;;;;;;;;;19.80;54.70;;;;;;5033485;28;1191;-70
2022/03/15 09:19:11;;;;;;;;;;;19.80;54.70;;;;;;5033226;28;914;-70
2022/03/15 09:21:36;;;;;;;;;;;19.80;54.70;;;;;;5032985;28;1219;-70
2022/03/15 09:24:02;;;;;;;;;;;19.80;54.70;;;;;;5031830;28;1064;-70
2022/03/15 09:26:27;;;;;;;;;;;19.80;54.80;;;;;;5032233;28;984;-70
2022/03/15 09:28:53;;;;;;;;;;;19.70;54.70;;;;;;5031854;28;1969;-70
2022/03/15 09:31:19;;;;;;;;;;;19.80;54.80;;;;;;5033557;28;1209;-70
2022/03/15 09:33:45;;;;;;;;;;;19.70;54.80;;;;;;5033384;28;738;-70
2022/03/15 09:36:11;;;;;;;;;;;19.70;54.80;;;;;;5032162;28;1528;-68
2022/03/15 09:38:36;;;;;;;;;;;19.70;54.90;;;;;;5033432;28;898;-70
2022/03/15 09:41:03;;;;;;;;;;;19.70;54.90;;;;;;5032112;28;1311;-70
2022/03/15 09:43:29;;;;;;;;;;;19.70;54.90;;;;;;5032058;28;910;-68
2022/03/15 09:45:54;;;;;;;;;;;19.70;54.90;;;;;;5031926;28;907;-69
2022/03/15 09:48:21;;;;;;;;;;;19.70;55.00;;;;;;5031945;28;1947;-68
2022/03/15 09:50:49;;;;;;;;;;;19.70;55.00;;;;;;5032742;28;1201;-69
2022/03/15 09:53:15;;;;;;;;;;;19.60;55.00;;;;;;5033008;28;1053;-69
2022/03/15 09:55:40;;;;;;;;;;;19.60;55.00;;;;;;5031996;28;994;-68
2022/03/15 09:58:06;;;;;;;;;;;19.70;55.10;;;;;;5033142;28;903;-69
2022/03/15 10:00:31;;;;;;;;;;;19.70;55.10;;;;;;5032528;28;1271;-70
2022/03/15 10:02:57;;;;;;;;;;;19.70;55.20;;;;;;5033004;28;1077;-70
2022/03/15 10:05:23;;;;;;;;;;;19.60;55.10;;;;;;5033104;28;858;-71
2022/03/15 10:07:48;;;;;;;;;;;19.60;55.20;;;;;;5032822;28;1961;-70
2022/03/15 10:10:14;;;;;;;;;;;19.60;55.10;;;;;;5031314;28;1136;-72
2022/03/15 10:12:39;;;;;;;;;;;19.60;55.10;;;;;;5032884;28;1157;-74
2022/03/15 10:15:12;;;;;;;;;;;19.70;55.20;;;;;;5043535;28;1559;-73
2022/03/15 10:17:41;;;;;;;;;;;19.70;55.00;;;;;;5032085;28;1553;-72
2022/03/15 10:20:08;;;;;;;;;;;19.70;55.00;;;;;;5032673;28;803;-71
2022/03/15 10:22:33;;;;;;;;;;;19.80;54.90;;;;;;5032756;28;1269;-73
2022/03/15 10:25:00;;;;;;;;;;;19.80;54.90;;;;;;5031662;28;932;-71
2022/03/15 10:27:25;;;;;;;;;;;19.80;54.90;;;;;;5031596;28;890;-72
2022/03/15 10:29:51;;;;;;;;;;;19.80;54.80;;;;;;5031080;28;1960;-72
2022/03/15 10:32:17;;;;;;;;;;;19.80;54.80;;;;;;5028807;28;1435;-73
2022/03/15 10:34:42;;;;;;;;;;;19.80;54.80;;;;;;5035285;28;947;-72
2022/03/15 10:37:08;;;;;;;;;;;19.80;54.80;;;;;;5046502;28;1444;-72
2022/03/15 10:39:33;;;;;;;;;;;19.80;54.80;;;;;;5051669;28;864;-70
2022/03/15 10:42:00;;;;;;;;;;;19.80;54.90;;;;;;5036340;28;1250;-72
2022/03/15 10:44:26;;;;;;;;;;;19.80;54.90;;;;;;5051695;28;820;-73
2022/03/15 10:47:07;;;;;;;;;;;19.70;54.90;;;;;;5051753;28;800;-73
2022/03/15 10:49:47;;;;;;;;;;;19.70;55.50;;;;;;5035402;28;1890;-73
2022/03/15 10:52:12;;;;;;;;;;;19.70;55.00;;;;;;5051232;28;1209;-74
2022/03/15 10:54:38;;;;;;;;;;;19.70;55.00;;;;;;5051354;28;915;-72
2022/03/15 10:57:03;;;;;;;;;;;19.70;55.00;;;;;;5036010;28;875;-72
2022/03/15 10:59:29;;;;;;;;;;;19.70;55.10;;;;;;5050928;28;976;-72
2022/03/15 11:01:54;;;;;;;;;;;19.70;55.10;;;;;;5035596;28;1199;-73
2022/03/15 11:04:20;;;;;;;;;;;19.70;55.20;;;;;;5035601;28;1126;-73
2022/03/15 11:06:49;;;;;;;;;;;19.60;55.10;;;;;;5035663;28;973;-71
2022/03/15 11:09:25;;;;;;;;;;;19.70;55.20;;;;;;5050775;28;1924;-72
2022/03/15 11:11:54;;;;;;;;;;;19.60;55.20;;;;;;5051074;28;1196;-72
2022/03/15 11:14:30;;;;;;;;;;;19.60;55.30;;;;;;5044840;28;1580;-71
2022/03/15 11:16:56;;;;;;;;;;;19.60;55.30;;;;;;5034304;28;1550;-70
2022/03/15 11:19:21;;;;;;;;;;;19.60;55.40;;;;;;5033704;28;954;-69
2022/03/15 11:21:47;;;;;;;;;;;19.60;55.40;;;;;;5034444;28;1225;-68
2022/03/15 11:24:12;;;;;;;;;;;19.50;56.00;;;;;;5034094;28;791;-72
2022/03/15 11:26:39;;;;;;;;;;;19.50;55.50;;;;;;5034186;28;862;-71
2022/03/15 11:29:05;;;;;;;;;;;19.40;55.50;;;;;;5033682;28;1964;-72
2022/03/15 11:31:30;;;;;;;;;;;19.50;55.60;;;;;;5033956;28;1375;-71
2022/03/15 11:33:57;;;;;;;;;;;19.50;55.60;;;;;;5033739;28;847;-72
2022/03/15 11:36:23;;;;;;;;;;;19.40;55.60;;;;;;5035209;28;1403;-72
2022/03/15 11:38:48;;;;;;;;;;;19.40;55.70;;;;;;5034761;28;1100;-71
2022/03/15 11:41:14;;;;;;;;;;;19.40;55.70;;;;;;5033644;28;1505;-71
2022/03/15 11:43:40;;;;;;;;;;;19.40;55.80;;;;;;5034919;28;819;-72
2022/03/15 11:46:09;;;;;;;;;;;19.40;55.80;;;;;;5032991;28;899;-72
2022/03/15 11:48:39;;;;;;;;;;;19.30;55.80;;;;;;5033236;28;1903;-72
2022/03/15 11:51:05;;;;;;;;;;;19.30;55.90;;;;;;5033345;28;1298;-71
2022/03/15 11:53:49;;;;;;;;;;;19.30;55.90;;;;;;5034892;28;812;-71
2022/03/15 11:56:32;;;;;;;;;;;19.30;56.00;;;;;;5034504;28;879;-71
2022/03/15 11:58:57;;;;;;;;;;;19.30;56.00;;;;;;5033108;28;819;-72
2022/03/15 12:01:23;;;;;;;;;;;19.30;56.10;;;;;;5034563;28;1236;-72
2022/03/15 12:03:52;;;;;;;;;;;19.30;56.10;;;;;;5033344;28;1022;-73
2022/03/15 12:06:19;;;;;;;;;;;19.20;56.10;;;;;;5033724;28;800;-72
2022/03/15 12:08:51;;;;;;;;;;;19.20;56.10;;;;;;5033339;28;1895;-72
2022/03/15 12:11:24;;;;;;;;;;;19.20;56.20;;;;;;5033108;28;1263;-72
2022/03/15 12:13:49;;;;;;;;;;;19.20;56.20;;;;;;5033430;28;1602;-71
2022/03/15 12:16:24;;;;;;;;;;;19.20;56.30;;;;;;5029742;28;1231;-72
2022/03/15 12:19:06;;;;;;;;;;;19.20;56.40;;;;;;5028386;28;754;-71
2022/03/15 12:21:31;;;;;;;;;;;19.10;56.30;;;;;;5028959;28;1350;-71
2022/03/15 12:23:57;;;;;;;;;;;19.10;56.40;;;;;;5014382;28;891;-72
2022/03/15 12:26:24;;;;;;;;;;;19.10;56.40;;;;;;5029661;28;866;-72
2022/03/15 12:29:07;;;;;;;;;;;19.10;56.40;;;;;;5029288;28;1957;-72
2022/03/15 12:31:40;;;;;;;;;;;19.10;56.50;;;;;;5029069;28;1279;-72
2022/03/15 12:34:05;;;;;;;;;;;19.10;56.50;;;;;;5029522;28;808;-72
2022/03/15 12:36:50;;;;;;;;;;;19.10;56.50;;;;;;5023376;28;1478;-72
2022/03/15 12:39:19;;;;;;;;;;;19.10;56.60;;;;;;5032445;28;902;-71
2022/03/15 12:41:49;;;;;;;;;;;19.00;56.60;;;;;;5032454;28;1141;-71
2022/03/15 12:44:14;;;;;;;;;;;19.00;56.60;;;;;;5033676;28;870;-71
2022/03/15 12:46:40;;;;;;;;;;;19.00;56.60;;;;;;5033850;28;823;-71
2022/03/15 12:49:10;;;;;;;;;;;19.00;56.70;;;;;;5032120;28;1945;-72
2022/03/15 12:51:39;;;;;;;;;;;19.00;56.70;;;;;;5033620;28;1199;-73
2022/03/15 12:54:06;;;;;;;;;;;19.00;56.80;;;;;;5032311;28;839;-72
2022/03/15 12:56:32;;;;;;;;;;;18.90;56.70;;;;;;5032970;28;827;-71
2022/03/15 12:58:57;;;;;;;;;;;18.90;56.80;;;;;;5031438;28;1105;-70
2022/03/15 13:01:22;;;;;;;;;;;18.90;56.80;;;;;;5032310;28;1313;-71
2022/03/15 13:03:48;;;;;;;;;;;18.90;56.80;;;;;;5032272;28;762;-71
2022/03/15 13:06:20;;;;;;;;;;;18.90;56.80;;;;;;5048581;28;984;-71
2022/03/15 13:08:55;;;;;;;;;;;18.90;56.80;;;;;;5031943;28;1902;-72
2022/03/15 13:11:21;;;;;;;;;;;18.90;56.90;;;;;;5033215;28;1240;-72
2022/03/15 13:13:46;;;;;;;;;;;18.90;57.00;;;;;;5032075;28;1586;-71
2022/03/15 13:16:12;;;;;;;;;;;18.90;57.00;;;;;;5033010;28;1420;-70
2022/03/15 13:18:38;;;;;;;;;;;18.90;57.00;;;;;;5033035;28;796;-70
2022/03/15 13:21:05;;;;;;;;;;;18.80;57.00;;;;;;5030818;28;2252;-71
2022/03/15 13:23:32;;;;;;;;;;;18.90;57.10;;;;;;5030612;28;1549;-70
2022/03/15 13:26:05;;;;;;;;;;;18.80;57.00;;;;;;5026854;28;1675;-70
2022/03/15 13:28:32;;;;;;;;;;;18.80;57.10;;;;;;5011621;28;1906;-70
2022/03/15 13:30:58;;;;;;;;;;;18.80;57.10;;;;;;5028139;28;1224;-71
2022/03/15 13:33:44;;;;;;;;;;;18.80;57.10;;;;;;5011966;28;1259;-70
2022/03/15 13:36:10;;;;;;;;;;;18.80;57.10;;;;;;5031570;28;1400;-71
2022/03/15 13:38:37;;;;;;;;;;;18.80;57.20;;;;;;5048017;28;1405;-71
2022/03/15 13:41:04;;;;;;;;;;;18.80;57.20;;;;;;5031563;28;1214;-71
2022/03/15 13:43:31;;;;;;;;;;;18.80;57.20;;;;;;5031672;28;823;-70
2022/03/15 13:45:56;;;;;;;;;;;18.80;57.30;;;;;;5032870;28;827;-70
2022/03/15 13:48:25;;;;;;;;;;;18.80;57.30;;;;;;5031447;28;1899;-70
2022/03/15 13:51:06;;;;;;;;;;;18.80;57.30;;;;;;5032277;28;1284;-70
2022/03/15 13:53:32;;;;;;;;;;;18.80;57.40;;;;;;5032727;28;906;-70
2022/03/15 13:56:10;;;;;;;;;;;18.70;57.30;;;;;;5031509;28;863;-70
2022/03/15 13:58:36;;;;;;;;;;;18.70;57.30;;;;;;5031184;28;790;-70
2022/03/15 14:01:05;;;;;;;;;;;18.70;57.40;;;;;;5030977;28;1231;-70
2022/03/15 14:03:33;;;;;;;;;;;18.70;57.40;;;;;;5047823;28;1602;-70
2022/03/15 14:06:00;;;;;;;;;;;18.70;57.40;;;;;;5031434;28;820;-70
2022/03/15 14:08:25;;;;;;;;;;;18.70;57.50;;;;;;5033380;28;1902;-70
2022/03/15 14:10:53;;;;;;;;;;;18.70;57.40;;;;;;5035340;28;1318;-70
2022/03/15 14:13:22;;;;;;;;;;;18.70;57.50;;;;;;5036894;28;1134;-71
2022/03/15 14:15:47;;;;;;;;;;;18.70;57.50;;;;;;5036392;28;1112;-70
2022/03/15 14:18:20;;;;;;;;;;;18.60;57.50;;;;;;5037142;28;867;-70
2022/03/15 14:20:47;;;;;;;;;;;18.60;57.50;;;;;;5036225;28;1189;-70
2022/03/15 14:23:14;;;;;;;;;;;18.60;57.50;;;;;;5035496;28;902;-71
2022/03/15 14:25:40;;;;;;;;;;;18.60;57.50;;;;;;5019209;28;1219;-70
2022/03/15 14:28:07;;;;;;;;;;;18.60;57.50;;;;;;5036458;28;1910;-71
2022/03/15 14:30:33;;;;;;;;;;;18.60;57.60;;;;;;5034951;28;1306;-71